sensor_id;sensor_type;location;lat;lon;timestamp;P1;durP1;ratioP1;P2;durP2;ratioP2
47617;SDS011;33336;36.728;-4.414;2022-08-19T00:03:07;13.10;;;5.68;;
47617;SDS011;33336;36.728;-4.414;2022-08-19T00:08:09;18.23;;;5.78;;
47617;SDS011;33336;36.728;-4.414;2022-08-19T00:13:12;17.33;;;4.80;;
47617;SDS011;33336;36.728;-4.414;2022-08-19T00:18:18;10.32;;;4.38;;
47617;SDS011;33336;36.728;-4.414;2022-08-19T00:23:20;13.38;;;6.28;;
47617;SDS011;33336;36.728;-4.414;2022-08-19T00:28:24;13.00;;;4.72;;
47617;SDS011;33336;36.728;-4.414;2022-08-19T00:33:28;9.98;;;4.75;;
47617;SDS011;33336;36.728;-4.414;2022-08-19T00:38:33;9.68;;;4.25;;
47617;SDS011;33336;36.728;-4.414;2022-08-19T00:43:37;12.05;;;4.97;;
47617;SDS011;33336;36.728;-4.414;2022-08-19T00:48:43;16.15;;;4.10;;
47617;SDS011;33336;36.728;-4.414;2022-08-19T00:53:45;9.32;;;4.20;;
47617;SDS011;33336;36.728;-4.414;2022-08-19T00:58:49;13.57;;;4.82;;
47617;SDS011;33336;36.728;-4.414;2022-08-19T01:03:53;8.88;;;4.25;;
47617;SDS011;33336;36.728;-4.414;2022-08-19T01:08:57;10.50;;;4.72;;
47617;SDS011;33336;36.728;-4.414;2022-08-19T01:14:01;13.23;;;4.25;;
47617;SDS011;33336;36.728;-4.414;2022-08-19T01:19:08;11.80;;;4.75;;
47617;SDS011;33336;36.728;-4.414;2022-08-19T01:24:15;12.77;;;5.03;;
47617;SDS011;33336;36.728;-4.414;2022-08-19T01:29:18;10.80;;;4.35;;
47617;SDS011;33336;36.728;-4.414;2022-08-19T01:34:21;13.32;;;4.88;;
47617;SDS011;33336;36.728;-4.414;2022-08-19T01:39:27;20.23;;;5.13;;
47617;SDS011;33336;36.728;-4.414;2022-08-19T01:44:30;13.48;;;5.50;;
47617;SDS011;33336;36.728;-4.414;2022-08-19T01:49:33;11.70;;;5.15;;
47617;SDS011;33336;36.728;-4.414;2022-08-19T01:54:37;13.00;;;4.60;;
47617;SDS011;33336;36.728;-4.414;2022-08-19T01:59:40;8.82;;;4.97;;
47617;SDS011;33336;36.728;-4.414;2022-08-19T02:04:44;9.63;;;4.38;;
47617;SDS011;33336;36.728;-4.414;2022-08-19T02:09:49;13.30;;;4.82;;
47617;SDS011;33336;36.728;-4.414;2022-08-19T02:14:51;14.30;;;4.57;;
47617;SDS011;33336;36.728;-4.414;2022-08-19T02:19:55;12.43;;;4.28;;
47617;SDS011;33336;36.728;-4.414;2022-08-19T02:25:00;12.52;;;4.95;;
47617;SDS011;33336;36.728;-4.414;2022-08-19T02:30:04;12.05;;;4.75;;
47617;SDS011;33336;36.728;-4.414;2022-08-19T02:35:08;13.80;;;4.55;;
47617;SDS011;33336;36.728;-4.414;2022-08-19T02:40:14;12.85;;;4.78;;
47617;SDS011;33336;36.728;-4.414;2022-08-19T02:45:18;10.98;;;4.18;;
47617;SDS011;33336;36.728;-4.414;2022-08-19T02:50:21;8.70;;;3.88;;
47617;SDS011;33336;36.728;-4.414;2022-08-19T02:55:25;15.02;;;5.00;;
47617;SDS011;33336;36.728;-4.414;2022-08-19T03:00:28;13.05;;;4.75;;
47617;SDS011;33336;36.728;-4.414;2022-08-19T03:05:31;10.18;;;4.45;;
47617;SDS011;33336;36.728;-4.414;2022-08-19T03:10:40;9.77;;;4.30;;
47617;SDS011;33336;36.728;-4.414;2022-08-19T03:15:46;12.48;;;4.47;;
47617;SDS011;33336;36.728;-4.414;2022-08-19T03:20:51;16.08;;;4.30;;
47617;SDS011;33336;36.728;-4.414;2022-08-19T03:25:56;12.45;;;4.28;;
47617;SDS011;33336;36.728;-4.414;2022-08-19T03:31:00;16.52;;;4.68;;
47617;SDS011;33336;36.728;-4.414;2022-08-19T03:36:05;11.23;;;4.53;;
47617;SDS011;33336;36.728;-4.414;2022-08-19T03:41:13;8.57;;;4.03;;
47617;SDS011;33336;36.728;-4.414;2022-08-19T03:46:19;9.43;;;4.03;;
47617;SDS011;33336;36.728;-4.414;2022-08-19T03:51:25;14.20;;;4.68;;
47617;SDS011;33336;36.728;-4.414;2022-08-19T03:56:30;11.05;;;4.63;;
47617;SDS011;33336;36.728;-4.414;2022-08-19T04:01:35;10.85;;;4.30;;
47617;SDS011;33336;36.728;-4.414;2022-08-19T04:06:38;17.63;;;5.13;;
47617;SDS011;33336;36.728;-4.414;2022-08-19T04:11:44;11.57;;;4.38;;
47617;SDS011;33336;36.728;-4.414;2022-08-19T04:16:49;11.43;;;4.53;;
47617;SDS011;33336;36.728;-4.414;2022-08-19T04:21:53;9.02;;;5.18;;
47617;SDS011;33336;36.728;-4.414;2022-08-19T04:26:58;11.95;;;4.07;;
47617;SDS011;33336;36.728;-4.414;2022-08-19T04:32:02;10.02;;;5.07;;
47617;SDS011;33336;36.728;-4.414;2022-08-19T04:37:06;12.27;;;4.47;;
47617;SDS011;33336;36.728;-4.414;2022-08-19T04:42:14;11.18;;;4.50;;
47617;SDS011;33336;36.728;-4.414;2022-08-19T04:47:34;11.50;;;4.35;;
47617;SDS011;33336;36.728;-4.414;2022-08-19T04:52:38;12.52;;;4.82;;
47617;SDS011;33336;36.728;-4.414;2022-08-19T04:57:44;12.32;;;4.65;;
47617;SDS011;33336;36.728;-4.414;2022-08-19T05:02:48;7.97;;;4.65;;
47617;SDS011;33336;36.728;-4.414;2022-08-19T05:07:51;18.30;;;4.70;;
47617;SDS011;33336;36.728;-4.414;2022-08-19T05:12:55;12.90;;;4.47;;
47617;SDS011;33336;36.728;-4.414;2022-08-19T05:17:58;12.98;;;4.80;;
47617;SDS011;33336;36.728;-4.414;2022-08-19T05:23:18;15.90;;;5.10;;
47617;SDS011;33336;36.728;-4.414;2022-08-19T05:28:22;10.95;;;4.60;;
47617;SDS011;33336;36.728;-4.414;2022-08-19T05:33:25;6.45;;;4.32;;
47617;SDS011;33336;36.728;-4.414;2022-08-19T05:38:29;12.75;;;4.60;;
47617;SDS011;33336;36.728;-4.414;2022-08-19T05:43:33;15.25;;;5.28;;
47617;SDS011;33336;36.728;-4.414;2022-08-19T05:48:37;8.05;;;4.55;;
47617;SDS011;33336;36.728;-4.414;2022-08-19T05:53:40;11.73;;;5.13;;
47617;SDS011;33336;36.728;-4.414;2022-08-19T05:58:44;12.73;;;4.43;;
47617;SDS011;33336;36.728;-4.414;2022-08-19T06:03:48;13.98;;;4.68;;
47617;SDS011;33336;36.728;-4.414;2022-08-19T06:08:51;7.88;;;4.93;;
47617;SDS011;33336;36.728;-4.414;2022-08-19T06:13:56;11.32;;;4.50;;
47617;SDS011;33336;36.728;-4.414;2022-08-19T06:19:01;12.20;;;4.63;;
47617;SDS011;33336;36.728;-4.414;2022-08-19T06:24:08;17.92;;;5.65;;
47617;SDS011;33336;36.728;-4.414;2022-08-19T06:29:15;15.73;;;6.05;;
47617;SDS011;33336;36.728;-4.414;2022-08-19T06:34:19;11.00;;;4.60;;
47617;SDS011;33336;36.728;-4.414;2022-08-19T06:39:23;16.77;;;5.50;;
47617;SDS011;33336;36.728;-4.414;2022-08-19T06:44:30;15.60;;;5.78;;
47617;SDS011;33336;36.728;-4.414;2022-08-19T06:49:37;12.63;;;5.68;;
47617;SDS011;33336;36.728;-4.414;2022-08-19T06:54:40;12.95;;;5.32;;
47617;SDS011;33336;36.728;-4.414;2022-08-19T06:59:45;10.93;;;4.85;;
47617;SDS011;33336;36.728;-4.414;2022-08-19T07:04:48;10.07;;;5.15;;
47617;SDS011;33336;36.728;-4.414;2022-08-19T07:09:52;19.50;;;6.10;;
47617;SDS011;33336;36.728;-4.414;2022-08-19T07:14:56;10.10;;;5.10;;
47617;SDS011;33336;36.728;-4.414;2022-08-19T07:20:00;16.45;;;5.65;;
47617;SDS011;33336;36.728;-4.414;2022-08-19T07:25:03;11.40;;;5.00;;
47617;SDS011;33336;36.728;-4.414;2022-08-19T07:30:11;11.38;;;5.20;;
47617;SDS011;33336;36.728;-4.414;2022-08-19T07:35:14;17.33;;;5.78;;
47617;SDS011;33336;36.728;-4.414;2022-08-19T07:40:20;10.25;;;5.15;;
47617;SDS011;33336;36.728;-4.414;2022-08-19T07:45:24;13.75;;;4.95;;
47617;SDS011;33336;36.728;-4.414;2022-08-19T07:50:29;17.45;;;5.30;;
47617;SDS011;33336;36.728;-4.414;2022-08-19T07:55:32;16.08;;;4.55;;
47617;SDS011;33336;36.728;-4.414;2022-08-19T08:00:37;14.80;;;4.70;;
47617;SDS011;33336;36.728;-4.414;2022-08-19T08:05:41;12.90;;;4.32;;
47617;SDS011;33336;36.728;-4.414;2022-08-19T08:11:02;9.65;;;3.40;;
47617;SDS011;33336;36.728;-4.414;2022-08-19T08:16:07;12.88;;;3.95;;
47617;SDS011;33336;36.728;-4.414;2022-08-19T08:21:11;10.68;;;3.67;;
47617;SDS011;33336;36.728;-4.414;2022-08-19T08:26:14;8.85;;;3.55;;
47617;SDS011;33336;36.728;-4.414;2022-08-19T08:31:19;16.52;;;3.70;;
47617;SDS011;33336;36.728;-4.414;2022-08-19T08:36:23;10.48;;;3.58;;
47617;SDS011;33336;36.728;-4.414;2022-08-19T08:41:28;12.02;;;4.28;;
47617;SDS011;33336;36.728;-4.414;2022-08-19T08:46:38;11.73;;;3.67;;
47617;SDS011;33336;36.728;-4.414;2022-08-19T08:51:47;15.23;;;4.47;;
47617;SDS011;33336;36.728;-4.414;2022-08-19T08:56:53;13.23;;;4.20;;
47617;SDS011;33336;36.728;-4.414;2022-08-19T09:01:59;14.52;;;3.70;;
47617;SDS011;33336;36.728;-4.414;2022-08-19T09:07:08;10.90;;;4.00;;
47617;SDS011;33336;36.728;-4.414;2022-08-19T09:12:31;11.35;;;3.55;;
47617;SDS011;33336;36.728;-4.414;2022-08-19T09:17:40;12.68;;;4.00;;
47617;SDS011;33336;36.728;-4.414;2022-08-19T09:22:43;12.82;;;4.43;;
47617;SDS011;33336;36.728;-4.414;2022-08-19T09:27:46;10.68;;;3.15;;
47617;SDS011;33336;36.728;-4.414;2022-08-19T09:32:51;13.07;;;4.10;;
47617;SDS011;33336;36.728;-4.414;2022-08-19T09:37:55;13.00;;;4.40;;
47617;SDS011;33336;36.728;-4.414;2022-08-19T09:42:59;8.85;;;3.50;;
47617;SDS011;33336;36.728;-4.414;2022-08-19T09:48:04;11.55;;;3.42;;
47617;SDS011;33336;36.728;-4.414;2022-08-19T09:53:08;11.10;;;4.30;;
47617;SDS011;33336;36.728;-4.414;2022-08-19T09:58:11;10.82;;;3.75;;
47617;SDS011;33336;36.728;-4.414;2022-08-19T10:03:15;11.90;;;4.20;;
47617;SDS011;33336;36.728;-4.414;2022-08-19T10:08:19;11.43;;;4.03;;
47617;SDS011;33336;36.728;-4.414;2022-08-19T10:13:25;12.05;;;3.72;;
47617;SDS011;33336;36.728;-4.414;2022-08-19T10:18:31;9.32;;;3.00;;
47617;SDS011;33336;36.728;-4.414;2022-08-19T10:23:35;8.68;;;3.42;;
47617;SDS011;33336;36.728;-4.414;2022-08-19T10:28:39;8.82;;;3.40;;
47617;SDS011;33336;36.728;-4.414;2022-08-19T10:33:44;14.50;;;4.10;;
47617;SDS011;33336;36.728;-4.414;2022-08-19T10:38:49;13.83;;;4.53;;
47617;SDS011;33336;36.728;-4.414;2022-08-19T10:43:55;12.15;;;3.38;;
47617;SDS011;33336;36.728;-4.414;2022-08-19T10:49:00;12.45;;;3.97;;
47617;SDS011;33336;36.728;-4.414;2022-08-19T10:54:04;7.93;;;3.88;;
47617;SDS011;33336;36.728;-4.414;2022-08-19T10:59:07;9.48;;;3.67;;
47617;SDS011;33336;36.728;-4.414;2022-08-19T11:04:12;7.97;;;2.83;;
47617;SDS011;33336;36.728;-4.414;2022-08-19T11:09:18;9.95;;;3.55;;
47617;SDS011;33336;36.728;-4.414;2022-08-19T11:19:30;14.70;;;3.42;;
47617;SDS011;33336;36.728;-4.414;2022-08-19T11:24:33;14.40;;;3.72;;
47617;SDS011;33336;36.728;-4.414;2022-08-19T11:29:37;10.02;;;3.38;;
47617;SDS011;33336;36.728;-4.414;2022-08-19T11:34:42;13.50;;;3.67;;
47617;SDS011;33336;36.728;-4.414;2022-08-19T11:39:45;11.90;;;3.85;;
47617;SDS011;33336;36.728;-4.414;2022-08-19T11:44:49;14.60;;;4.20;;
47617;SDS011;33336;36.728;-4.414;2022-08-19T11:49:54;15.90;;;4.00;;
47617;SDS011;33336;36.728;-4.414;2022-08-19T11:54:57;12.90;;;4.60;;
47617;SDS011;33336;36.728;-4.414;2022-08-19T12:00:00;12.88;;;4.03;;
47617;SDS011;33336;36.728;-4.414;2022-08-19T12:05:06;14.32;;;4.07;;
47617;SDS011;33336;36.728;-4.414;2022-08-19T12:10:10;10.00;;;3.75;;
47617;SDS011;33336;36.728;-4.414;2022-08-19T12:15:13;10.60;;;3.65;;
47617;SDS011;33336;36.728;-4.414;2022-08-19T12:20:17;12.95;;;4.57;;
47617;SDS011;33336;36.728;-4.414;2022-08-19T12:25:20;11.02;;;2.85;;
47617;SDS011;33336;36.728;-4.414;2022-08-19T12:30:23;11.25;;;3.83;;
47617;SDS011;33336;36.728;-4.414;2022-08-19T12:35:28;11.52;;;4.05;;
47617;SDS011;33336;36.728;-4.414;2022-08-19T12:40:31;15.00;;;3.45;;
47617;SDS011;33336;36.728;-4.414;2022-08-19T12:45:35;7.82;;;3.40;;
47617;SDS011;33336;36.728;-4.414;2022-08-19T12:50:40;9.18;;;3.15;;
47617;SDS011;33336;36.728;-4.414;2022-08-19T12:55:43;9.32;;;3.28;;
47617;SDS011;33336;36.728;-4.414;2022-08-19T13:00:46;5.80;;;3.15;;
47617;SDS011;33336;36.728;-4.414;2022-08-19T13:05:51;11.88;;;3.45;;
47617;SDS011;33336;36.728;-4.414;2022-08-19T13:10:53;6.93;;;3.88;;
47617;SDS011;33336;36.728;-4.414;2022-08-19T13:15:59;10.70;;;3.60;;
47617;SDS011;33336;36.728;-4.414;2022-08-19T13:21:07;8.88;;;3.60;;
47617;SDS011;33336;36.728;-4.414;2022-08-19T13:26:12;8.60;;;3.47;;
47617;SDS011;33336;36.728;-4.414;2022-08-19T13:31:15;5.15;;;2.97;;
47617;SDS011;33336;36.728;-4.414;2022-08-19T13:36:38;12.90;;;4.03;;
47617;SDS011;33336;36.728;-4.414;2022-08-19T13:41:43;9.75;;;3.25;;
47617;SDS011;33336;36.728;-4.414;2022-08-19T13:46:49;5.95;;;2.78;;
47617;SDS011;33336;36.728;-4.414;2022-08-19T13:51:53;13.02;;;4.22;;
47617;SDS011;33336;36.728;-4.414;2022-08-19T13:56:57;11.82;;;3.50;;
47617;SDS011;33336;36.728;-4.414;2022-08-19T14:02:00;10.55;;;2.92;;
47617;SDS011;33336;36.728;-4.414;2022-08-19T14:07:04;6.30;;;2.65;;
47617;SDS011;33336;36.728;-4.414;2022-08-19T14:12:07;7.93;;;3.40;;
47617;SDS011;33336;36.728;-4.414;2022-08-19T14:17:11;9.15;;;3.42;;
47617;SDS011;33336;36.728;-4.414;2022-08-19T14:22:15;7.25;;;3.10;;
47617;SDS011;33336;36.728;-4.414;2022-08-19T14:27:20;7.73;;;3.03;;
47617;SDS011;33336;36.728;-4.414;2022-08-19T14:32:26;7.55;;;3.20;;
47617;SDS011;33336;36.728;-4.414;2022-08-19T14:37:30;5.95;;;2.75;;
47617;SDS011;33336;36.728;-4.414;2022-08-19T14:42:34;6.65;;;2.75;;
47617;SDS011;33336;36.728;-4.414;2022-08-19T14:47:38;9.52;;;3.40;;
47617;SDS011;33336;36.728;-4.414;2022-08-19T14:52:42;5.38;;;2.47;;
47617;SDS011;33336;36.728;-4.414;2022-08-19T14:57:46;8.73;;;3.30;;
47617;SDS011;33336;36.728;-4.414;2022-08-19T15:02:49;7.88;;;2.28;;
47617;SDS011;33336;36.728;-4.414;2022-08-19T15:07:54;7.40;;;2.50;;
47617;SDS011;33336;36.728;-4.414;2022-08-19T15:12:57;5.57;;;2.33;;
47617;SDS011;33336;36.728;-4.414;2022-08-19T15:18:01;5.60;;;2.38;;
47617;SDS011;33336;36.728;-4.414;2022-08-19T15:23:05;3.97;;;1.90;;
47617;SDS011;33336;36.728;-4.414;2022-08-19T15:28:09;5.80;;;2.00;;
47617;SDS011;33336;36.728;-4.414;2022-08-19T15:33:12;10.13;;;2.38;;
47617;SDS011;33336;36.728;-4.414;2022-08-19T15:38:17;6.20;;;2.00;;
47617;SDS011;33336;36.728;-4.414;2022-08-19T15:43:21;6.68;;;2.13;;
47617;SDS011;33336;36.728;-4.414;2022-08-19T15:48:25;8.38;;;2.28;;
47617;SDS011;33336;36.728;-4.414;2022-08-19T15:53:29;8.85;;;2.90;;
47617;SDS011;33336;36.728;-4.414;2022-08-19T15:58:33;6.53;;;2.33;;
47617;SDS011;33336;36.728;-4.414;2022-08-19T16:03:53;8.77;;;2.20;;
47617;SDS011;33336;36.728;-4.414;2022-08-19T16:09:18;4.75;;;2.47;;
47617;SDS011;33336;36.728;-4.414;2022-08-19T16:14:23;5.63;;;2.20;;
47617;SDS011;33336;36.728;-4.414;2022-08-19T16:19:27;6.25;;;2.17;;
47617;SDS011;33336;36.728;-4.414;2022-08-19T16:24:34;8.73;;;2.05;;
47617;SDS011;33336;36.728;-4.414;2022-08-19T16:29:37;6.38;;;2.08;;
47617;SDS011;33336;36.728;-4.414;2022-08-19T16:34:40;3.70;;;1.87;;
47617;SDS011;33336;36.728;-4.414;2022-08-19T16:39:44;6.47;;;2.47;;
47617;SDS011;33336;36.728;-4.414;2022-08-19T16:44:47;3.97;;;2.25;;
47617;SDS011;33336;36.728;-4.414;2022-08-19T16:49:51;4.13;;;1.67;;
47617;SDS011;33336;36.728;-4.414;2022-08-19T16:54:55;9.05;;;2.22;;
47617;SDS011;33336;36.728;-4.414;2022-08-19T16:59:59;5.18;;;2.13;;
47617;SDS011;33336;36.728;-4.414;2022-08-19T17:05:08;3.63;;;1.80;;
47617;SDS011;33336;36.728;-4.414;2022-08-19T17:10:13;7.80;;;2.35;;
47617;SDS011;33336;36.728;-4.414;2022-08-19T17:15:16;4.28;;;1.60;;
47617;SDS011;33336;36.728;-4.414;2022-08-19T17:20:20;3.60;;;1.65;;
47617;SDS011;33336;36.728;-4.414;2022-08-19T17:25:24;4.72;;;1.98;;
47617;SDS011;33336;36.728;-4.414;2022-08-19T17:30:30;6.32;;;1.80;;
47617;SDS011;33336;36.728;-4.414;2022-08-19T17:35:33;7.90;;;2.40;;
47617;SDS011;33336;36.728;-4.414;2022-08-19T17:40:38;3.40;;;1.58;;
47617;SDS011;33336;36.728;-4.414;2022-08-19T17:45:42;6.03;;;1.83;;
47617;SDS011;33336;36.728;-4.414;2022-08-19T17:50:46;5.20;;;1.48;;
47617;SDS011;33336;36.728;-4.414;2022-08-19T17:55:52;7.07;;;2.55;;
47617;SDS011;33336;36.728;-4.414;2022-08-19T18:00:56;5.85;;;2.28;;
47617;SDS011;33336;36.728;-4.414;2022-08-19T18:06:01;4.50;;;1.60;;
47617;SDS011;33336;36.728;-4.414;2022-08-19T18:11:09;3.88;;;1.48;;
47617;SDS011;33336;36.728;-4.414;2022-08-19T18:16:12;5.03;;;2.17;;
47617;SDS011;33336;36.728;-4.414;2022-08-19T18:21:18;4.18;;;1.48;;
47617;SDS011;33336;36.728;-4.414;2022-08-19T18:26:22;3.92;;;1.55;;
47617;SDS011;33336;36.728;-4.414;2022-08-19T18:31:26;5.28;;;1.83;;
47617;SDS011;33336;36.728;-4.414;2022-08-19T18:36:29;5.50;;;1.63;;
47617;SDS011;33336;36.728;-4.414;2022-08-19T18:41:34;6.53;;;2.63;;
47617;SDS011;33336;36.728;-4.414;2022-08-19T18:46:51;9.18;;;1.83;;
47617;SDS011;33336;36.728;-4.414;2022-08-19T18:52:12;3.42;;;1.65;;
47617;SDS011;33336;36.728;-4.414;2022-08-19T18:57:16;4.60;;;2.30;;
47617;SDS011;33336;36.728;-4.414;2022-08-19T19:02:25;7.80;;;1.95;;
47617;SDS011;33336;36.728;-4.414;2022-08-19T19:07:28;8.93;;;3.05;;
47617;SDS011;33336;36.728;-4.414;2022-08-19T19:12:34;8.25;;;2.47;;
47617;SDS011;33336;36.728;-4.414;2022-08-19T19:17:41;10.73;;;2.67;;
47617;SDS011;33336;36.728;-4.414;2022-08-19T19:22:45;21.98;;;3.60;;
47617;SDS011;33336;36.728;-4.414;2022-08-19T19:27:49;6.82;;;2.78;;
47617;SDS011;33336;36.728;-4.414;2022-08-19T19:32:55;4.05;;;2.72;;
47617;SDS011;33336;36.728;-4.414;2022-08-19T19:38:01;7.30;;;3.05;;
47617;SDS011;33336;36.728;-4.414;2022-08-19T19:43:05;8.40;;;3.78;;
47617;SDS011;33336;36.728;-4.414;2022-08-19T19:48:08;9.80;;;3.00;;
47617;SDS011;33336;36.728;-4.414;2022-08-19T19:53:16;6.97;;;3.30;;
47617;SDS011;33336;36.728;-4.414;2022-08-19T19:58:20;10.25;;;4.18;;
47617;SDS011;33336;36.728;-4.414;2022-08-19T20:03:24;14.65;;;4.60;;
47617;SDS011;33336;36.728;-4.414;2022-08-19T20:08:27;11.30;;;4.68;;
47617;SDS011;33336;36.728;-4.414;2022-08-19T20:13:50;10.68;;;4.50;;
47617;SDS011;33336;36.728;-4.414;2022-08-19T20:18:53;14.10;;;4.57;;
47617;SDS011;33336;36.728;-4.414;2022-08-19T20:23:57;8.82;;;5.18;;
47617;SDS011;33336;36.728;-4.414;2022-08-19T20:29:02;7.70;;;4.60;;
47617;SDS011;33336;36.728;-4.414;2022-08-19T20:34:06;11.13;;;4.57;;
47617;SDS011;33336;36.728;-4.414;2022-08-19T20:39:09;13.18;;;5.07;;
47617;SDS011;33336;36.728;-4.414;2022-08-19T20:44:14;14.70;;;4.70;;
47617;SDS011;33336;36.728;-4.414;2022-08-19T20:49:17;12.98;;;5.25;;
47617;SDS011;33336;36.728;-4.414;2022-08-19T20:54:21;13.60;;;5.57;;
47617;SDS011;33336;36.728;-4.414;2022-08-19T20:59:26;10.93;;;5.18;;
47617;SDS011;33336;36.728;-4.414;2022-08-19T21:04:29;11.60;;;4.80;;
47617;SDS011;33336;36.728;-4.414;2022-08-19T21:09:32;12.52;;;5.00;;
47617;SDS011;33336;36.728;-4.414;2022-08-19T21:14:38;12.15;;;4.82;;
47617;SDS011;33336;36.728;-4.414;2022-08-19T21:19:42;15.40;;;4.40;;
47617;SDS011;33336;36.728;-4.414;2022-08-19T21:24:45;11.02;;;4.55;;
47617;SDS011;33336;36.728;-4.414;2022-08-19T21:29:49;10.13;;;4.07;;
47617;SDS011;33336;36.728;-4.414;2022-08-19T21:34:54;11.35;;;3.90;;
47617;SDS011;33336;36.728;-4.414;2022-08-19T21:39:57;15.93;;;4.82;;
47617;SDS011;33336;36.728;-4.414;2022-08-19T21:45:02;6.80;;;4.18;;
47617;SDS011;33336;36.728;-4.414;2022-08-19T21:50:06;12.13;;;4.10;;
47617;SDS011;33336;36.728;-4.414;2022-08-19T21:55:12;6.78;;;4.10;;
47617;SDS011;33336;36.728;-4.414;2022-08-19T22:00:19;7.93;;;3.50;;
47617;SDS011;33336;36.728;-4.414;2022-08-19T22:05:24;12.55;;;4.57;;
47617;SDS011;33336;36.728;-4.414;2022-08-19T22:10:29;8.80;;;3.70;;
47617;SDS011;33336;36.728;-4.414;2022-08-19T22:15:35;10.50;;;3.77;;
47617;SDS011;33336;36.728;-4.414;2022-08-19T22:20:38;8.65;;;3.50;;
47617;SDS011;33336;36.728;-4.414;2022-08-19T22:25:42;14.57;;;4.03;;
47617;SDS011;33336;36.728;-4.414;2022-08-19T22:30:47;7.18;;;2.80;;
47617;SDS011;33336;36.728;-4.414;2022-08-19T22:35:51;9.05;;;2.78;;
47617;SDS011;33336;36.728;-4.414;2022-08-19T22:40:54;11.75;;;2.47;;
47617;SDS011;33336;36.728;-4.414;2022-08-19T22:45:59;5.22;;;2.28;;
47617;SDS011;33336;36.728;-4.414;2022-08-19T22:51:02;13.00;;;3.25;;
47617;SDS011;33336;36.728;-4.414;2022-08-19T22:56:23;4.78;;;2.30;;
47617;SDS011;33336;36.728;-4.414;2022-08-19T23:01:28;4.75;;;2.47;;
47617;SDS011;33336;36.728;-4.414;2022-08-19T23:06:30;6.20;;;2.70;;
47617;SDS011;33336;36.728;-4.414;2022-08-19T23:11:34;6.82;;;2.88;;
47617;SDS011;33336;36.728;-4.414;2022-08-19T23:16:41;10.80;;;2.22;;
47617;SDS011;33336;36.728;-4.414;2022-08-19T23:21:46;8.38;;;2.58;;
47617;SDS011;33336;36.728;-4.414;2022-08-19T23:26:50;12.50;;;3.53;;
47617;SDS011;33336;36.728;-4.414;2022-08-19T23:32:11;5.68;;;2.35;;
47617;SDS011;33336;36.728;-4.414;2022-08-19T23:37:14;8.52;;;2.60;;
47617;SDS011;33336;36.728;-4.414;2022-08-19T23:42:17;6.68;;;2.60;;
47617;SDS011;33336;36.728;-4.414;2022-08-19T23:47:23;7.40;;;2.70;;
47617;SDS011;33336;36.728;-4.414;2022-08-19T23:52:26;5.80;;;2.90;;
47617;SDS011;33336;36.728;-4.414;2022-08-19T23:57:30;10.32;;;3.45;;
